sensor_id;sensor_type;location;lat;lon;timestamp;P1;durP1;ratioP1;P2;durP2;ratioP2
12554;SDS011;6343;50.868;4.700;2022-07-29T00:00:39;1.93;;;1.50;;
12554;SDS011;6343;50.868;4.700;2022-07-29T00:03:05;1.97;;;1.40;;
12554;SDS011;6343;50.868;4.700;2022-07-29T00:05:31;2.83;;;1.60;;
12554;SDS011;6343;50.868;4.700;2022-07-29T00:07:58;4.37;;;1.50;;
12554;SDS011;6343;50.868;4.700;2022-07-29T00:10:24;6.07;;;1.50;;
12554;SDS011;6343;50.868;4.700;2022-07-29T00:12:50;3.57;;;1.40;;
12554;SDS011;6343;50.868;4.700;2022-07-29T00:15:16;3.93;;;1.63;;
12554;SDS011;6343;50.868;4.700;2022-07-29T00:17:42;3.87;;;1.70;;
12554;SDS011;6343;50.868;4.700;2022-07-29T00:20:08;1.70;;;1.60;;
12554;SDS011;6343;50.868;4.700;2022-07-29T00:22:36;3.33;;;1.23;;
12554;SDS011;6343;50.868;4.700;2022-07-29T00:25:03;7.37;;;1.60;;
12554;SDS011;6343;50.868;4.700;2022-07-29T00:27:29;4.10;;;1.80;;
12554;SDS011;6343;50.868;4.700;2022-07-29T00:29:55;5.10;;;1.50;;
12554;SDS011;6343;50.868;4.700;2022-07-29T00:32:21;11.63;;;1.80;;
12554;SDS011;6343;50.868;4.700;2022-07-29T00:34:47;5.10;;;2.07;;
12554;SDS011;6343;50.868;4.700;2022-07-29T00:37:31;4.03;;;2.00;;
12554;SDS011;6343;50.868;4.700;2022-07-29T00:39:57;4.47;;;1.50;;
12554;SDS011;6343;50.868;4.700;2022-07-29T00:42:24;5.17;;;1.57;;
12554;SDS011;6343;50.868;4.700;2022-07-29T00:44:50;3.50;;;1.70;;
12554;SDS011;6343;50.868;4.700;2022-07-29T00:47:16;4.03;;;1.80;;
12554;SDS011;6343;50.868;4.700;2022-07-29T00:49:42;4.07;;;1.80;;
12554;SDS011;6343;50.868;4.700;2022-07-29T00:52:08;2.60;;;1.50;;
12554;SDS011;6343;50.868;4.700;2022-07-29T00:54:35;5.33;;;1.43;;
12554;SDS011;6343;50.868;4.700;2022-07-29T00:57:01;3.17;;;1.60;;
12554;SDS011;6343;50.868;4.700;2022-07-29T00:59:27;3.27;;;1.90;;
12554;SDS011;6343;50.868;4.700;2022-07-29T01:01:54;3.40;;;1.90;;
12554;SDS011;6343;50.868;4.700;2022-07-29T01:04:20;4.97;;;1.83;;
12554;SDS011;6343;50.868;4.700;2022-07-29T01:06:47;5.67;;;2.03;;
12554;SDS011;6343;50.868;4.700;2022-07-29T01:09:13;3.70;;;2.00;;
12554;SDS011;6343;50.868;4.700;2022-07-29T01:11:40;4.57;;;2.10;;
12554;SDS011;6343;50.868;4.700;2022-07-29T01:14:06;8.17;;;2.17;;
12554;SDS011;6343;50.868;4.700;2022-07-29T01:16:34;5.87;;;1.80;;
12554;SDS011;6343;50.868;4.700;2022-07-29T01:21:55;4.57;;;1.70;;
12554;SDS011;6343;50.868;4.700;2022-07-29T01:24:29;5.67;;;2.07;;
12554;SDS011;6343;50.868;4.700;2022-07-29T01:29:36;4.50;;;2.03;;
12554;SDS011;6343;50.868;4.700;2022-07-29T01:32:11;3.80;;;1.93;;
12554;SDS011;6343;50.868;4.700;2022-07-29T01:34:43;3.40;;;1.97;;
12554;SDS011;6343;50.868;4.700;2022-07-29T01:39:37;7.43;;;2.57;;
12554;SDS011;6343;50.868;4.700;2022-07-29T01:44:57;5.33;;;1.97;;
12554;SDS011;6343;50.868;4.700;2022-07-29T01:47:25;3.37;;;1.73;;
12554;SDS011;6343;50.868;4.700;2022-07-29T01:49:52;5.33;;;1.90;;
12554;SDS011;6343;50.868;4.700;2022-07-29T01:52:23;5.40;;;1.83;;
12554;SDS011;6343;50.868;4.700;2022-07-29T01:54:52;4.07;;;2.00;;
12554;SDS011;6343;50.868;4.700;2022-07-29T01:57:19;3.27;;;1.80;;
12554;SDS011;6343;50.868;4.700;2022-07-29T01:59:49;2.40;;;1.50;;
12554;SDS011;6343;50.868;4.700;2022-07-29T02:02:16;3.80;;;2.00;;
12554;SDS011;6343;50.868;4.700;2022-07-29T02:04:44;5.90;;;1.80;;
12554;SDS011;6343;50.868;4.700;2022-07-29T02:07:13;3.60;;;1.80;;
12554;SDS011;6343;50.868;4.700;2022-07-29T02:09:41;7.63;;;2.30;;
12554;SDS011;6343;50.868;4.700;2022-07-29T02:12:08;4.47;;;1.80;;
12554;SDS011;6343;50.868;4.700;2022-07-29T02:14:40;5.47;;;1.90;;
12554;SDS011;6343;50.868;4.700;2022-07-29T02:17:07;5.60;;;2.33;;
12554;SDS011;6343;50.868;4.700;2022-07-29T02:19:33;5.73;;;1.93;;
12554;SDS011;6343;50.868;4.700;2022-07-29T02:22:00;3.13;;;1.80;;
12554;SDS011;6343;50.868;4.700;2022-07-29T02:24:26;3.80;;;1.50;;
12554;SDS011;6343;50.868;4.700;2022-07-29T02:26:53;3.70;;;2.00;;
12554;SDS011;6343;50.868;4.700;2022-07-29T02:29:21;4.60;;;2.03;;
12554;SDS011;6343;50.868;4.700;2022-07-29T02:31:48;4.40;;;1.90;;
12554;SDS011;6343;50.868;4.700;2022-07-29T02:34:15;4.87;;;1.73;;
12554;SDS011;6343;50.868;4.700;2022-07-29T02:36:41;3.30;;;1.80;;
12554;SDS011;6343;50.868;4.700;2022-07-29T02:39:08;2.37;;;1.93;;
12554;SDS011;6343;50.868;4.700;2022-07-29T02:41:44;4.30;;;1.60;;
12554;SDS011;6343;50.868;4.700;2022-07-29T02:44:12;3.80;;;1.77;;
12554;SDS011;6343;50.868;4.700;2022-07-29T02:46:41;4.20;;;1.90;;
12554;SDS011;6343;50.868;4.700;2022-07-29T02:51:49;4.33;;;2.00;;
12554;SDS011;6343;50.868;4.700;2022-07-29T02:54:22;4.33;;;1.60;;
12554;SDS011;6343;50.868;4.700;2022-07-29T02:56:49;2.73;;;2.03;;
12554;SDS011;6343;50.868;4.700;2022-07-29T02:59:19;6.67;;;2.00;;
12554;SDS011;6343;50.868;4.700;2022-07-29T03:01:47;3.43;;;2.10;;
12554;SDS011;6343;50.868;4.700;2022-07-29T03:04:14;2.87;;;1.83;;
12554;SDS011;6343;50.868;4.700;2022-07-29T03:06:41;4.17;;;2.00;;
12554;SDS011;6343;50.868;4.700;2022-07-29T03:09:08;3.07;;;1.80;;
12554;SDS011;6343;50.868;4.700;2022-07-29T03:11:35;2.77;;;1.70;;
12554;SDS011;6343;50.868;4.700;2022-07-29T03:14:02;4.87;;;2.20;;
12554;SDS011;6343;50.868;4.700;2022-07-29T03:16:28;3.97;;;1.97;;
12554;SDS011;6343;50.868;4.700;2022-07-29T03:18:54;4.30;;;1.93;;
12554;SDS011;6343;50.868;4.700;2022-07-29T03:21:21;7.57;;;2.37;;
12554;SDS011;6343;50.868;4.700;2022-07-29T03:23:47;2.77;;;1.90;;
12554;SDS011;6343;50.868;4.700;2022-07-29T03:26:13;5.13;;;1.90;;
12554;SDS011;6343;50.868;4.700;2022-07-29T03:28:39;3.87;;;2.10;;
12554;SDS011;6343;50.868;4.700;2022-07-29T03:31:05;5.27;;;2.00;;
12554;SDS011;6343;50.868;4.700;2022-07-29T03:33:31;3.33;;;1.97;;
12554;SDS011;6343;50.868;4.700;2022-07-29T03:35:57;7.40;;;2.17;;
12554;SDS011;6343;50.868;4.700;2022-07-29T03:38:24;3.63;;;2.07;;
12554;SDS011;6343;50.868;4.700;2022-07-29T03:40:54;3.20;;;1.90;;
12554;SDS011;6343;50.868;4.700;2022-07-29T03:43:20;8.03;;;2.20;;
12554;SDS011;6343;50.868;4.700;2022-07-29T03:45:48;4.70;;;1.83;;
12554;SDS011;6343;50.868;4.700;2022-07-29T03:48:16;2.87;;;1.53;;
12554;SDS011;6343;50.868;4.700;2022-07-29T03:50:43;2.77;;;1.73;;
12554;SDS011;6343;50.868;4.700;2022-07-29T03:53:10;5.23;;;1.97;;
12554;SDS011;6343;50.868;4.700;2022-07-29T03:55:37;7.07;;;1.90;;
12554;SDS011;6343;50.868;4.700;2022-07-29T03:58:05;5.33;;;1.97;;
12554;SDS011;6343;50.868;4.700;2022-07-29T04:00:33;3.23;;;2.23;;
12554;SDS011;6343;50.868;4.700;2022-07-29T04:02:59;2.53;;;2.00;;
12554;SDS011;6343;50.868;4.700;2022-07-29T04:05:26;5.83;;;2.03;;
12554;SDS011;6343;50.868;4.700;2022-07-29T04:07:52;3.63;;;2.13;;
12554;SDS011;6343;50.868;4.700;2022-07-29T04:10:18;3.00;;;2.10;;
12554;SDS011;6343;50.868;4.700;2022-07-29T04:12:44;6.67;;;1.80;;
12554;SDS011;6343;50.868;4.700;2022-07-29T04:15:10;6.20;;;1.83;;
12554;SDS011;6343;50.868;4.700;2022-07-29T04:17:37;8.70;;;2.30;;
12554;SDS011;6343;50.868;4.700;2022-07-29T04:20:03;6.60;;;2.43;;
12554;SDS011;6343;50.868;4.700;2022-07-29T04:22:29;2.80;;;1.80;;
12554;SDS011;6343;50.868;4.700;2022-07-29T04:24:55;4.40;;;2.33;;
12554;SDS011;6343;50.868;4.700;2022-07-29T04:27:21;3.57;;;2.00;;
12554;SDS011;6343;50.868;4.700;2022-07-29T04:29:47;3.53;;;1.97;;
12554;SDS011;6343;50.868;4.700;2022-07-29T04:32:13;3.93;;;2.03;;
12554;SDS011;6343;50.868;4.700;2022-07-29T04:34:40;6.80;;;2.30;;
12554;SDS011;6343;50.868;4.700;2022-07-29T04:37:06;5.97;;;2.30;;
12554;SDS011;6343;50.868;4.700;2022-07-29T04:39:32;5.00;;;2.43;;
12554;SDS011;6343;50.868;4.700;2022-07-29T04:41:58;4.83;;;2.27;;
12554;SDS011;6343;50.868;4.700;2022-07-29T04:44:24;7.83;;;2.73;;
12554;SDS011;6343;50.868;4.700;2022-07-29T04:46:50;9.50;;;2.37;;
12554;SDS011;6343;50.868;4.700;2022-07-29T04:49:16;9.10;;;2.40;;
12554;SDS011;6343;50.868;4.700;2022-07-29T04:51:42;4.80;;;2.23;;
12554;SDS011;6343;50.868;4.700;2022-07-29T04:54:08;6.53;;;2.47;;
12554;SDS011;6343;50.868;4.700;2022-07-29T04:56:34;5.87;;;2.20;;
12554;SDS011;6343;50.868;4.700;2022-07-29T04:59:00;5.47;;;2.40;;
12554;SDS011;6343;50.868;4.700;2022-07-29T05:01:26;5.47;;;2.33;;
12554;SDS011;6343;50.868;4.700;2022-07-29T05:03:52;7.40;;;2.70;;
12554;SDS011;6343;50.868;4.700;2022-07-29T05:06:18;4.67;;;2.10;;
12554;SDS011;6343;50.868;4.700;2022-07-29T05:08:44;5.93;;;2.20;;
12554;SDS011;6343;50.868;4.700;2022-07-29T05:11:10;5.53;;;2.20;;
12554;SDS011;6343;50.868;4.700;2022-07-29T05:13:36;3.10;;;2.30;;
12554;SDS011;6343;50.868;4.700;2022-07-29T05:16:02;4.80;;;2.47;;
12554;SDS011;6343;50.868;4.700;2022-07-29T05:18:29;10.17;;;2.60;;
12554;SDS011;6343;50.868;4.700;2022-07-29T05:20:55;6.20;;;2.33;;
12554;SDS011;6343;50.868;4.700;2022-07-29T05:23:21;6.60;;;2.80;;
12554;SDS011;6343;50.868;4.700;2022-07-29T05:25:47;4.53;;;2.40;;
12554;SDS011;6343;50.868;4.700;2022-07-29T05:28:13;4.83;;;2.40;;
12554;SDS011;6343;50.868;4.700;2022-07-29T05:30:40;4.57;;;2.53;;
12554;SDS011;6343;50.868;4.700;2022-07-29T05:33:06;5.27;;;2.50;;
12554;SDS011;6343;50.868;4.700;2022-07-29T05:35:32;4.97;;;2.67;;
12554;SDS011;6343;50.868;4.700;2022-07-29T05:37:59;4.80;;;2.40;;
12554;SDS011;6343;50.868;4.700;2022-07-29T05:40:26;6.30;;;2.60;;
12554;SDS011;6343;50.868;4.700;2022-07-29T05:42:52;3.17;;;2.43;;
12554;SDS011;6343;50.868;4.700;2022-07-29T05:45:18;4.60;;;3.03;;
12554;SDS011;6343;50.868;4.700;2022-07-29T05:47:44;6.63;;;2.93;;
12554;SDS011;6343;50.868;4.700;2022-07-29T05:50:10;4.27;;;2.73;;
12554;SDS011;6343;50.868;4.700;2022-07-29T05:52:36;6.37;;;3.03;;
12554;SDS011;6343;50.868;4.700;2022-07-29T05:55:02;8.03;;;2.97;;
12554;SDS011;6343;50.868;4.700;2022-07-29T05:57:30;6.93;;;2.90;;
12554;SDS011;6343;50.868;4.700;2022-07-29T05:59:56;5.33;;;2.67;;
12554;SDS011;6343;50.868;4.700;2022-07-29T06:02:22;2.97;;;2.63;;
12554;SDS011;6343;50.868;4.700;2022-07-29T06:04:48;4.67;;;2.73;;
12554;SDS011;6343;50.868;4.700;2022-07-29T06:07:15;4.40;;;3.33;;
12554;SDS011;6343;50.868;4.700;2022-07-29T06:09:41;9.03;;;3.00;;
12554;SDS011;6343;50.868;4.700;2022-07-29T06:12:07;3.70;;;2.03;;
12554;SDS011;6343;50.868;4.700;2022-07-29T06:14:34;6.77;;;3.10;;
12554;SDS011;6343;50.868;4.700;2022-07-29T06:17:00;9.17;;;3.30;;
12554;SDS011;6343;50.868;4.700;2022-07-29T06:19:26;6.77;;;3.47;;
12554;SDS011;6343;50.868;4.700;2022-07-29T06:21:53;7.77;;;2.93;;
12554;SDS011;6343;50.868;4.700;2022-07-29T06:24:19;7.20;;;3.60;;
12554;SDS011;6343;50.868;4.700;2022-07-29T06:26:45;7.63;;;4.43;;
12554;SDS011;6343;50.868;4.700;2022-07-29T06:29:11;5.93;;;3.40;;
12554;SDS011;6343;50.868;4.700;2022-07-29T06:31:37;11.23;;;4.10;;
12554;SDS011;6343;50.868;4.700;2022-07-29T06:34:04;15.43;;;3.57;;
12554;SDS011;6343;50.868;4.700;2022-07-29T06:36:30;7.90;;;3.07;;
12554;SDS011;6343;50.868;4.700;2022-07-29T06:38:56;7.20;;;3.30;;
12554;SDS011;6343;50.868;4.700;2022-07-29T06:41:22;6.90;;;3.30;;
12554;SDS011;6343;50.868;4.700;2022-07-29T06:43:48;15.20;;;3.33;;
12554;SDS011;6343;50.868;4.700;2022-07-29T06:46:16;11.40;;;3.33;;
12554;SDS011;6343;50.868;4.700;2022-07-29T06:48:43;9.70;;;3.03;;
12554;SDS011;6343;50.868;4.700;2022-07-29T06:51:09;13.63;;;3.37;;
12554;SDS011;6343;50.868;4.700;2022-07-29T06:53:36;5.17;;;3.13;;
12554;SDS011;6343;50.868;4.700;2022-07-29T06:56:03;11.60;;;3.37;;
12554;SDS011;6343;50.868;4.700;2022-07-29T06:58:29;10.93;;;4.23;;
12554;SDS011;6343;50.868;4.700;2022-07-29T07:00:56;11.87;;;3.30;;
12554;SDS011;6343;50.868;4.700;2022-07-29T07:03:22;10.30;;;3.77;;
12554;SDS011;6343;50.868;4.700;2022-07-29T07:05:48;8.43;;;3.13;;
12554;SDS011;6343;50.868;4.700;2022-07-29T07:08:14;11.20;;;3.57;;
12554;SDS011;6343;50.868;4.700;2022-07-29T07:10:41;7.50;;;3.90;;
12554;SDS011;6343;50.868;4.700;2022-07-29T07:13:08;11.27;;;3.90;;
12554;SDS011;6343;50.868;4.700;2022-07-29T07:15:35;8.27;;;3.20;;
12554;SDS011;6343;50.868;4.700;2022-07-29T07:18:01;4.80;;;3.03;;
12554;SDS011;6343;50.868;4.700;2022-07-29T07:20:27;9.07;;;3.30;;
12554;SDS011;6343;50.868;4.700;2022-07-29T07:22:53;5.47;;;2.70;;
12554;SDS011;6343;50.868;4.700;2022-07-29T07:25:19;9.93;;;3.40;;
12554;SDS011;6343;50.868;4.700;2022-07-29T07:27:46;7.60;;;3.40;;
12554;SDS011;6343;50.868;4.700;2022-07-29T07:30:12;5.30;;;3.25;;
12554;SDS011;6343;50.868;4.700;2022-07-29T07:32:38;5.53;;;3.10;;
12554;SDS011;6343;50.868;4.700;2022-07-29T07:35:05;5.30;;;3.00;;
12554;SDS011;6343;50.868;4.700;2022-07-29T07:37:32;6.03;;;3.38;;
12554;SDS011;6343;50.868;4.700;2022-07-29T07:39:58;3.72;;;2.83;;
12554;SDS011;6343;50.868;4.700;2022-07-29T07:42:24;4.70;;;2.80;;
12554;SDS011;6343;50.868;4.700;2022-07-29T07:44:50;7.30;;;3.08;;
12554;SDS011;6343;50.868;4.700;2022-07-29T07:47:16;5.15;;;3.13;;
12554;SDS011;6343;50.868;4.700;2022-07-29T07:49:48;3.50;;;3.00;;
12554;SDS011;6343;50.868;4.700;2022-07-29T07:52:15;4.03;;;3.08;;
12554;SDS011;6343;50.868;4.700;2022-07-29T07:54:42;13.13;;;3.60;;
12554;SDS011;6343;50.868;4.700;2022-07-29T07:57:09;8.75;;;3.33;;
12554;SDS011;6343;50.868;4.700;2022-07-29T07:59:36;3.33;;;3.03;;
12554;SDS011;6343;50.868;4.700;2022-07-29T08:02:02;6.32;;;3.83;;
12554;SDS011;6343;50.868;4.700;2022-07-29T08:04:28;5.70;;;3.15;;
12554;SDS011;6343;50.868;4.700;2022-07-29T08:06:54;6.00;;;3.22;;
12554;SDS011;6343;50.868;4.700;2022-07-29T08:09:21;4.75;;;3.10;;
12554;SDS011;6343;50.868;4.700;2022-07-29T08:11:47;5.90;;;3.70;;
12554;SDS011;6343;50.868;4.700;2022-07-29T08:14:13;4.38;;;2.92;;
12554;SDS011;6343;50.868;4.700;2022-07-29T08:16:39;6.97;;;3.20;;
12554;SDS011;6343;50.868;4.700;2022-07-29T08:19:07;3.60;;;2.70;;
12554;SDS011;6343;50.868;4.700;2022-07-29T08:21:33;12.10;;;3.30;;
12554;SDS011;6343;50.868;4.700;2022-07-29T08:23:59;4.13;;;2.92;;
12554;SDS011;6343;50.868;4.700;2022-07-29T08:26:43;5.85;;;3.35;;
12554;SDS011;6343;50.868;4.700;2022-07-29T08:29:10;8.90;;;4.32;;
12554;SDS011;6343;50.868;4.700;2022-07-29T08:31:36;9.88;;;3.88;;
12554;SDS011;6343;50.868;4.700;2022-07-29T08:34:03;3.83;;;2.53;;
12554;SDS011;6343;50.868;4.700;2022-07-29T08:36:29;3.35;;;2.42;;
12554;SDS011;6343;50.868;4.700;2022-07-29T08:38:55;3.85;;;3.00;;
12554;SDS011;6343;50.868;4.700;2022-07-29T08:41:21;4.60;;;3.03;;
12554;SDS011;6343;50.868;4.700;2022-07-29T08:43:48;6.35;;;3.17;;
12554;SDS011;6343;50.868;4.700;2022-07-29T08:46:14;4.78;;;2.88;;
12554;SDS011;6343;50.868;4.700;2022-07-29T08:48:42;11.02;;;3.45;;
12554;SDS011;6343;50.868;4.700;2022-07-29T08:51:08;5.72;;;3.03;;
12554;SDS011;6343;50.868;4.700;2022-07-29T08:53:39;5.35;;;2.60;;
12554;SDS011;6343;50.868;4.700;2022-07-29T08:56:07;6.22;;;2.83;;
12554;SDS011;6343;50.868;4.700;2022-07-29T08:58:37;7.53;;;2.90;;
12554;SDS011;6343;50.868;4.700;2022-07-29T09:01:03;4.03;;;2.70;;
12554;SDS011;6343;50.868;4.700;2022-07-29T09:03:31;4.85;;;2.83;;
12554;SDS011;6343;50.868;4.700;2022-07-29T09:05:57;5.72;;;3.08;;
12554;SDS011;6343;50.868;4.700;2022-07-29T09:08:24;6.38;;;2.53;;
12554;SDS011;6343;50.868;4.700;2022-07-29T09:10:50;2.97;;;2.35;;
12554;SDS011;6343;50.868;4.700;2022-07-29T09:13:17;5.95;;;2.15;;
12554;SDS011;6343;50.868;4.700;2022-07-29T09:15:43;8.55;;;3.35;;
12554;SDS011;6343;50.868;4.700;2022-07-29T09:18:10;3.28;;;2.03;;
12554;SDS011;6343;50.868;4.700;2022-07-29T09:20:36;3.97;;;1.95;;
12554;SDS011;6343;50.868;4.700;2022-07-29T09:23:20;3.33;;;2.30;;
12554;SDS011;6343;50.868;4.700;2022-07-29T09:25:46;5.10;;;2.00;;
12554;SDS011;6343;50.868;4.700;2022-07-29T09:28:13;3.65;;;2.30;;
12554;SDS011;6343;50.868;4.700;2022-07-29T09:30:56;3.13;;;1.80;;
12554;SDS011;6343;50.868;4.700;2022-07-29T09:33:24;2.97;;;1.80;;
12554;SDS011;6343;50.868;4.700;2022-07-29T09:38:25;4.93;;;2.20;;
12554;SDS011;6343;50.868;4.700;2022-07-29T09:40:58;3.80;;;2.40;;
12554;SDS011;6343;50.868;4.700;2022-07-29T09:43:24;7.32;;;2.15;;
12554;SDS011;6343;50.868;4.700;2022-07-29T09:45:51;2.90;;;1.58;;
12554;SDS011;6343;50.868;4.700;2022-07-29T09:48:18;3.30;;;1.80;;
12554;SDS011;6343;50.868;4.700;2022-07-29T09:50:45;3.78;;;1.63;;
12554;SDS011;6343;50.868;4.700;2022-07-29T09:53:29;3.70;;;1.80;;
12554;SDS011;6343;50.868;4.700;2022-07-29T09:55:55;6.20;;;2.10;;
12554;SDS011;6343;50.868;4.700;2022-07-29T09:58:21;3.17;;;1.73;;
12554;SDS011;6343;50.868;4.700;2022-07-29T10:00:48;5.20;;;2.17;;
12554;SDS011;6343;50.868;4.700;2022-07-29T10:03:14;4.15;;;1.75;;
12554;SDS011;6343;50.868;4.700;2022-07-29T10:05:41;3.65;;;1.80;;
12554;SDS011;6343;50.868;4.700;2022-07-29T10:08:07;3.20;;;1.60;;
12554;SDS011;6343;50.868;4.700;2022-07-29T10:10:43;4.50;;;1.90;;
12554;SDS011;6343;50.868;4.700;2022-07-29T10:13:10;2.55;;;1.75;;
12554;SDS011;6343;50.868;4.700;2022-07-29T10:15:38;2.65;;;1.50;;
12554;SDS011;6343;50.868;4.700;2022-07-29T10:18:06;11.43;;;2.13;;
12554;SDS011;6343;50.868;4.700;2022-07-29T10:20:33;2.28;;;1.75;;
12554;SDS011;6343;50.868;4.700;2022-07-29T10:22:59;5.28;;;1.70;;
12554;SDS011;6343;50.868;4.700;2022-07-29T10:25:26;1.80;;;1.70;;
12554;SDS011;6343;50.868;4.700;2022-07-29T10:27:52;4.63;;;1.50;;
12554;SDS011;6343;50.868;4.700;2022-07-29T10:30:20;5.45;;;1.77;;
12554;SDS011;6343;50.868;4.700;2022-07-29T10:35:31;5.53;;;1.70;;
12554;SDS011;6343;50.868;4.700;2022-07-29T10:43:17;2.88;;;1.70;;
12554;SDS011;6343;50.868;4.700;2022-07-29T10:45:46;1.73;;;1.48;;
12554;SDS011;6343;50.868;4.700;2022-07-29T10:48:13;2.63;;;1.90;;
12554;SDS011;6343;50.868;4.700;2022-07-29T10:53:24;3.25;;;1.70;;
12554;SDS011;6343;50.868;4.700;2022-07-29T10:55:51;3.08;;;1.63;;
12554;SDS011;6343;50.868;4.700;2022-07-29T10:58:21;5.97;;;1.67;;
12554;SDS011;6343;50.868;4.700;2022-07-29T11:00:52;5.25;;;1.77;;
12554;SDS011;6343;50.868;4.700;2022-07-29T11:06:03;3.42;;;1.90;;
12554;SDS011;6343;50.868;4.700;2022-07-29T11:08:29;2.95;;;1.75;;
12554;SDS011;6343;50.868;4.700;2022-07-29T11:16:13;5.55;;;1.80;;
12554;SDS011;6343;50.868;4.700;2022-07-29T11:21:37;3.45;;;2.10;;
12554;SDS011;6343;50.868;4.700;2022-07-29T11:24:13;3.35;;;2.05;;
12554;SDS011;6343;50.868;4.700;2022-07-29T11:26:40;6.25;;;1.83;;
12554;SDS011;6343;50.868;4.700;2022-07-29T11:29:13;5.78;;;1.70;;
12554;SDS011;6343;50.868;4.700;2022-07-29T11:31:46;4.65;;;2.05;;
12554;SDS011;6343;50.868;4.700;2022-07-29T11:34:28;2.55;;;1.75;;
12554;SDS011;6343;50.868;4.700;2022-07-29T11:39:39;3.13;;;1.60;;
12554;SDS011;6343;50.868;4.700;2022-07-29T11:47:30;3.25;;;2.05;;
12554;SDS011;6343;50.868;4.700;2022-07-29T11:49:56;2.67;;;2.00;;
12554;SDS011;6343;50.868;4.700;2022-07-29T11:52:23;2.97;;;2.10;;
12554;SDS011;6343;50.868;4.700;2022-07-29T11:54:50;3.30;;;2.00;;
12554;SDS011;6343;50.868;4.700;2022-07-29T11:57:17;2.15;;;1.65;;
12554;SDS011;6343;50.868;4.700;2022-07-29T11:59:44;3.00;;;2.00;;
12554;SDS011;6343;50.868;4.700;2022-07-29T12:02:11;9.25;;;1.92;;
12554;SDS011;6343;50.868;4.700;2022-07-29T12:04:50;3.22;;;1.88;;
12554;SDS011;6343;50.868;4.700;2022-07-29T12:07:16;5.85;;;2.08;;
12554;SDS011;6343;50.868;4.700;2022-07-29T12:09:49;2.08;;;1.75;;
12554;SDS011;6343;50.868;4.700;2022-07-29T12:12:16;4.07;;;1.95;;
12554;SDS011;6343;50.868;4.700;2022-07-29T12:14:42;2.45;;;1.80;;
12554;SDS011;6343;50.868;4.700;2022-07-29T12:17:27;10.07;;;2.15;;
12554;SDS011;6343;50.868;4.700;2022-07-29T12:19:54;2.90;;;1.88;;
12554;SDS011;6343;50.868;4.700;2022-07-29T12:24:52;2.30;;;2.00;;
12554;SDS011;6343;50.868;4.700;2022-07-29T12:27:19;4.63;;;1.80;;
12554;SDS011;6343;50.868;4.700;2022-07-29T12:29:54;10.13;;;1.65;;
12554;SDS011;6343;50.868;4.700;2022-07-29T12:32:21;2.05;;;1.50;;
12554;SDS011;6343;50.868;4.700;2022-07-29T12:34:47;3.67;;;1.80;;
12554;SDS011;6343;50.868;4.700;2022-07-29T12:37:13;8.02;;;2.25;;
12554;SDS011;6343;50.868;4.700;2022-07-29T12:39:40;3.45;;;1.92;;
12554;SDS011;6343;50.868;4.700;2022-07-29T12:42:12;3.25;;;1.90;;
12554;SDS011;6343;50.868;4.700;2022-07-29T12:44:48;2.28;;;1.63;;
12554;SDS011;6343;50.868;4.700;2022-07-29T12:47:15;5.50;;;2.05;;
12554;SDS011;6343;50.868;4.700;2022-07-29T12:49:43;3.72;;;2.08;;
12554;SDS011;6343;50.868;4.700;2022-07-29T12:52:25;7.70;;;1.70;;
12554;SDS011;6343;50.868;4.700;2022-07-29T12:54:51;4.40;;;2.00;;
12554;SDS011;6343;50.868;4.700;2022-07-29T12:57:17;4.03;;;2.55;;
12554;SDS011;6343;50.868;4.700;2022-07-29T12:59:43;4.18;;;1.90;;
12554;SDS011;6343;50.868;4.700;2022-07-29T13:02:22;5.68;;;1.85;;
12554;SDS011;6343;50.868;4.700;2022-07-29T13:04:55;5.93;;;1.65;;
12554;SDS011;6343;50.868;4.700;2022-07-29T13:07:25;15.65;;;2.55;;
12554;SDS011;6343;50.868;4.700;2022-07-29T13:09:52;3.97;;;1.70;;
12554;SDS011;6343;50.868;4.700;2022-07-29T13:12:18;6.88;;;1.95;;
12554;SDS011;6343;50.868;4.700;2022-07-29T13:14:49;2.97;;;1.83;;
12554;SDS011;6343;50.868;4.700;2022-07-29T13:17:19;6.85;;;1.52;;
12554;SDS011;6343;50.868;4.700;2022-07-29T13:19:49;6.65;;;2.50;;
12554;SDS011;6343;50.868;4.700;2022-07-29T13:22:22;2.70;;;1.70;;
12554;SDS011;6343;50.868;4.700;2022-07-29T13:27:15;3.92;;;1.80;;
12554;SDS011;6343;50.868;4.700;2022-07-29T13:29:42;3.72;;;1.50;;
12554;SDS011;6343;50.868;4.700;2022-07-29T13:32:09;3.63;;;2.05;;
12554;SDS011;6343;50.868;4.700;2022-07-29T13:34:36;4.40;;;1.67;;
12554;SDS011;6343;50.868;4.700;2022-07-29T13:37:02;5.65;;;1.98;;
12554;SDS011;6343;50.868;4.700;2022-07-29T13:39:28;6.80;;;2.45;;
12554;SDS011;6343;50.868;4.700;2022-07-29T13:41:55;4.45;;;1.92;;
12554;SDS011;6343;50.868;4.700;2022-07-29T13:44:21;8.05;;;2.28;;
12554;SDS011;6343;50.868;4.700;2022-07-29T13:46:47;3.17;;;1.80;;
12554;SDS011;6343;50.868;4.700;2022-07-29T13:49:13;4.85;;;2.13;;
12554;SDS011;6343;50.868;4.700;2022-07-29T13:51:39;4.00;;;2.00;;
12554;SDS011;6343;50.868;4.700;2022-07-29T13:54:05;4.22;;;1.90;;
12554;SDS011;6343;50.868;4.700;2022-07-29T13:56:31;8.65;;;2.40;;
12554;SDS011;6343;50.868;4.700;2022-07-29T13:58:58;11.70;;;2.10;;
12554;SDS011;6343;50.868;4.700;2022-07-29T14:01:24;3.50;;;1.98;;
12554;SDS011;6343;50.868;4.700;2022-07-29T14:03:51;5.35;;;2.00;;
12554;SDS011;6343;50.868;4.700;2022-07-29T14:06:17;6.63;;;2.13;;
12554;SDS011;6343;50.868;4.700;2022-07-29T14:08:43;4.32;;;1.83;;
12554;SDS011;6343;50.868;4.700;2022-07-29T14:11:09;7.28;;;2.20;;
12554;SDS011;6343;50.868;4.700;2022-07-29T14:13:35;4.93;;;2.30;;
12554;SDS011;6343;50.868;4.700;2022-07-29T14:16:01;7.75;;;2.40;;
12554;SDS011;6343;50.868;4.700;2022-07-29T14:18:27;4.03;;;1.92;;
12554;SDS011;6343;50.868;4.700;2022-07-29T14:20:53;3.92;;;2.15;;
12554;SDS011;6343;50.868;4.700;2022-07-29T14:23:19;6.03;;;2.60;;
12554;SDS011;6343;50.868;4.700;2022-07-29T14:25:45;4.95;;;2.65;;
12554;SDS011;6343;50.868;4.700;2022-07-29T14:28:11;2.58;;;2.38;;
12554;SDS011;6343;50.868;4.700;2022-07-29T14:30:38;5.50;;;2.70;;
12554;SDS011;6343;50.868;4.700;2022-07-29T14:33:04;8.23;;;3.10;;
12554;SDS011;6343;50.868;4.700;2022-07-29T14:35:30;6.65;;;3.90;;
12554;SDS011;6343;50.868;4.700;2022-07-29T14:37:56;6.45;;;3.28;;
12554;SDS011;6343;50.868;4.700;2022-07-29T14:40:22;12.02;;;3.92;;
12554;SDS011;6343;50.868;4.700;2022-07-29T14:42:49;11.52;;;3.05;;
12554;SDS011;6343;50.868;4.700;2022-07-29T14:45:15;4.72;;;2.88;;
12554;SDS011;6343;50.868;4.700;2022-07-29T14:47:41;7.10;;;2.97;;
12554;SDS011;6343;50.868;4.700;2022-07-29T14:50:07;6.13;;;3.33;;
12554;SDS011;6343;50.868;4.700;2022-07-29T14:52:33;4.95;;;3.25;;
12554;SDS011;6343;50.868;4.700;2022-07-29T14:55:00;4.50;;;2.60;;
12554;SDS011;6343;50.868;4.700;2022-07-29T14:57:26;7.35;;;3.13;;
12554;SDS011;6343;50.868;4.700;2022-07-29T14:59:52;6.43;;;3.25;;
12554;SDS011;6343;50.868;4.700;2022-07-29T15:02:18;3.97;;;2.90;;
12554;SDS011;6343;50.868;4.700;2022-07-29T15:04:44;6.55;;;2.67;;
12554;SDS011;6343;50.868;4.700;2022-07-29T15:07:11;9.43;;;2.55;;
12554;SDS011;6343;50.868;4.700;2022-07-29T15:09:37;3.72;;;2.50;;
12554;SDS011;6343;50.868;4.700;2022-07-29T15:12:03;3.20;;;2.53;;
12554;SDS011;6343;50.868;4.700;2022-07-29T15:14:30;4.78;;;2.80;;
12554;SDS011;6343;50.868;4.700;2022-07-29T15:16:56;4.00;;;2.20;;
12554;SDS011;6343;50.868;4.700;2022-07-29T15:19:22;2.97;;;2.20;;
12554;SDS011;6343;50.868;4.700;2022-07-29T15:21:49;4.22;;;2.60;;
12554;SDS011;6343;50.868;4.700;2022-07-29T15:24:15;4.68;;;2.70;;
12554;SDS011;6343;50.868;4.700;2022-07-29T15:26:41;7.38;;;2.40;;
12554;SDS011;6343;50.868;4.700;2022-07-29T15:29:08;4.93;;;2.25;;
12554;SDS011;6343;50.868;4.700;2022-07-29T15:31:34;5.95;;;1.98;;
12554;SDS011;6343;50.868;4.700;2022-07-29T15:34:00;4.13;;;2.25;;
12554;SDS011;6343;50.868;4.700;2022-07-29T15:36:26;7.43;;;2.20;;
12554;SDS011;6343;50.868;4.700;2022-07-29T15:38:52;6.15;;;2.45;;
12554;SDS011;6343;50.868;4.700;2022-07-29T15:41:19;7.28;;;2.30;;
12554;SDS011;6343;50.868;4.700;2022-07-29T15:43:45;5.15;;;2.10;;
12554;SDS011;6343;50.868;4.700;2022-07-29T15:46:16;6.72;;;2.10;;
12554;SDS011;6343;50.868;4.700;2022-07-29T15:49:01;3.85;;;2.03;;
12554;SDS011;6343;50.868;4.700;2022-07-29T15:51:27;3.90;;;2.10;;